Time;durP1;ratioP1;P1;durP2;ratioP2;P2;SDS_P1;SDS_P2;PMS_P1;PMS_P2;Temp;Humidity;BMP_temperature;BMP_pressure;BME280_temperature;BME280_humidity;BME280_pressure;Samples;Min_cycle;Max_cycle;Signal;HPM_P1;HPM_P2
2022/05/01 00:04:23;;;;;;;9.27;6.43;;;;;;;;;;10385846;28;20112;-78
2022/05/01 00:09:23;;;;;;;11.80;7.03;;;;;;;;;;10385610;28;20562;-72
2022/05/01 00:14:23;;;;;;;8.23;6.53;;;;;;;;;;10402175;28;20416;-73
2022/05/01 00:19:24;;;;;;;8.07;6.18;;;;;;;;;;10402367;28;20029;-72
2022/05/01 00:24:24;;;;;;;9.05;6.68;;;;;;;;;;10402301;28;20052;-75
2022/05/01 00:29:25;;;;;;;9.70;6.65;;;;;;;;;;10385587;28;20029;-76
2022/05/01 00:39:44;;;;;;;13.65;7.43;;;;;;;;;;10403595;28;20037;-75
2022/05/01 00:44:45;;;;;;;11.32;7.40;;;;;;;;;;10385000;28;20033;-79
2022/05/01 00:49:45;;;;;;;13.60;8.35;;;;;;;;;;10384754;28;20021;-77
2022/05/01 00:54:47;;;;;;;12.32;8.20;;;;;;;;;;10401059;28;20495;-72
2022/05/01 00:59:47;;;;;;;14.15;9.80;;;;;;;;;;10376566;28;20030;-72
2022/05/01 01:04:47;;;;;;;13.00;9.20;;;;;;;;;;10410236;28;20022;-70
2022/05/01 01:09:48;;;;;;;12.57;9.50;;;;;;;;;;10392196;28;20470;-74
2022/05/01 01:14:48;;;;;;;16.85;10.77;;;;;;;;;;10408558;28;20037;-72
2022/05/01 01:19:48;;;;;;;15.65;10.52;;;;;;;;;;10408682;28;20070;-72
2022/05/01 01:24:49;;;;;;;15.57;11.33;;;;;;;;;;10408236;28;20021;-74
2022/05/01 01:35:09;;;;;;;16.02;11.23;;;;;;;;;;10409100;28;20080;-76
2022/05/01 01:40:10;;;;;;;19.83;11.15;;;;;;;;;;10391352;28;20460;-73
2022/05/01 01:45:11;;;;;;;16.55;11.82;;;;;;;;;;10408458;28;20052;-75
2022/05/01 01:50:14;;;;;;;17.60;13.35;;;;;;;;;;10407447;28;20026;-74
2022/05/01 01:55:16;;;;;;;19.38;14.27;;;;;;;;;;10407203;28;20493;-78
2022/05/01 02:00:16;;;;;;;21.42;12.80;;;;;;;;;;10406846;28;20017;-75
2022/05/01 02:05:16;;;;;;;28.42;14.15;;;;;;;;;;10406508;28;20408;-73
2022/05/01 02:10:17;;;;;;;19.35;12.02;;;;;;;;;;10407439;28;20026;-73
2022/05/01 02:15:18;;;;;;;21.52;13.05;;;;;;;;;;10406540;28;20049;-72
2022/05/01 02:20:18;;;;;;;23.98;13.82;;;;;;;;;;10389491;28;20108;-72
2022/05/01 02:25:21;;;;;;;21.08;14.68;;;;;;;;;;10407172;28;20030;-77
2022/05/01 02:30:21;;;;;;;22.20;14.55;;;;;;;;;;10405126;28;20033;-73
2022/05/01 02:35:21;;;;;;;22.05;15.05;;;;;;;;;;10405558;28;20053;-75
2022/05/01 02:40:22;;;;;;;24.08;16.20;;;;;;;;;;10406449;28;20025;-75
2022/05/01 02:45:22;;;;;;;27.58;15.55;;;;;;;;;;10405096;28;20021;-73
2022/05/01 02:50:22;;;;;;;26.05;15.45;;;;;;;;;;10404880;28;20108;-76
2022/05/01 02:55:22;;;;;;;24.95;15.35;;;;;;;;;;10404963;28;20018;-73
2022/05/01 03:00:23;;;;;;;25.93;14.80;;;;;;;;;;10388288;28;20512;-73
2022/05/01 03:05:24;;;;;;;27.67;16.90;;;;;;;;;;10404848;28;20030;-74
2022/05/01 03:10:24;;;;;;;28.35;17.23;;;;;;;;;;10404123;28;20029;-73
2022/05/01 03:15:25;;;;;;;26.00;16.65;;;;;;;;;;10404793;28;20405;-75
2022/05/01 03:25:44;;;;;;;29.15;14.73;;;;;;;;;;10404931;28;20026;-69
2022/05/01 03:30:44;;;;;;;26.70;15.73;;;;;;;;;;10405090;28;20025;-72
2022/05/01 03:35:45;;;;;;;33.80;21.20;;;;;;;;;;10402700;28;20041;-70
2022/05/01 03:40:47;;;;;;;25.10;16.00;;;;;;;;;;10386847;28;20021;-77
2022/05/01 03:45:47;;;;;;;35.95;17.55;;;;;;;;;;10404517;28;20013;-77
2022/05/01 03:50:50;;;;;;;28.25;17.48;;;;;;;;;;10402651;28;20523;-70
2022/05/01 03:55:51;;;;;;;30.23;17.70;;;;;;;;;;10403276;28;20066;-78
2022/05/01 04:00:51;;;;;;;26.45;16.05;;;;;;;;;;10402666;28;20030;-76
2022/05/01 04:05:52;;;;;;;27.10;17.55;;;;;;;;;;10402513;28;20036;-78
2022/05/01 04:10:52;;;;;;;28.80;18.45;;;;;;;;;;10402213;28;20086;-71
2022/05/01 04:15:53;;;;;;;25.73;16.27;;;;;;;;;;10402415;28;20441;-74
2022/05/01 04:20:54;;;;;;;28.70;16.40;;;;;;;;;;10401909;28;20218;-70
2022/05/01 04:25:54;;;;;;;28.25;16.33;;;;;;;;;;10403193;28;20021;-73
2022/05/01 04:30:55;;;;;;;30.02;18.33;;;;;;;;;;10406406;28;20091;-71
2022/05/01 04:35:55;;;;;;;28.35;17.23;;;;;;;;;;10393346;28;20057;-73
2022/05/01 04:40:58;;;;;;;28.35;17.25;;;;;;;;;;10411404;28;20014;-77
2022/05/01 04:45:58;;;;;;;23.90;16.45;;;;;;;;;;10408998;28;20033;-72
2022/05/01 04:51:00;;;;;;;25.95;15.07;;;;;;;;;;10409555;28;20398;-72
2022/05/01 04:57:04;;;;;;;22.55;15.05;;;;;;;;;;10410428;28;20026;-73
2022/05/01 05:01:20;;;;;;;24.23;13.75;;;;;;;;;;10409647;28;20021;-75
2022/05/01 05:06:23;;;;;;;23.80;13.02;;;;;;;;;;10407498;28;20409;-72
2022/05/01 05:11:23;;;;;;;18.27;12.35;;;;;;;;;;10396202;28;20040;-72
2022/05/01 05:16:23;;;;;;;20.10;12.48;;;;;;;;;;10427964;28;20528;-71
2022/05/01 05:21:24;;;;;;;20.37;12.57;;;;;;;;;;10429659;28;20028;-73
2022/05/01 05:26:24;;;;;;;21.30;13.60;;;;;;;;;;10412131;28;20024;-73
2022/05/01 05:31:24;;;;;;;16.60;11.73;;;;;;;;;;10426976;28;20134;-73
2022/05/01 05:36:24;;;;;;;18.57;11.77;;;;;;;;;;10429616;28;20499;-72
2022/05/01 05:41:25;;;;;;;18.70;12.85;;;;;;;;;;10405965;28;20024;-70
2022/05/01 05:46:25;;;;;;;15.43;10.50;;;;;;;;;;10434018;28;20025;-72
2022/05/01 05:51:25;;;;;;;14.70;10.20;;;;;;;;;;10426112;28;20029;-76
2022/05/01 05:56:26;;;;;;;13.90;9.70;;;;;;;;;;10397048;28;20146;-72
2022/05/01 06:01:26;;;;;;;13.20;9.77;;;;;;;;;;10430291;28;20294;-75
2022/05/01 06:06:26;;;;;;;13.53;9.33;;;;;;;;;;10421966;28;20029;-74
2022/05/01 06:11:27;;;;;;;13.30;9.00;;;;;;;;;;10405124;28;20029;-72
2022/05/01 06:16:27;;;;;;;11.63;8.67;;;;;;;;;;10426946;28;20052;-73
2022/05/01 06:21:27;;;;;;;8.43;5.97;;;;;;;;;;10408671;28;20029;-75
2022/05/01 06:26:28;;;;;;;12.02;7.07;;;;;;;;;;10422382;28;20033;-76
2022/05/01 06:31:28;;;;;;;11.20;8.60;;;;;;;;;;10406758;28;20029;-77
2022/05/01 06:36:29;;;;;;;10.50;6.53;;;;;;;;;;10442765;28;20295;-72
2022/05/01 06:41:29;;;;;;;11.90;7.53;;;;;;;;;;10429773;28;20107;-72
2022/05/01 06:46:30;;;;;;;13.80;7.93;;;;;;;;;;10429866;28;20021;-77
2022/05/01 06:51:30;;;;;;;10.80;7.10;;;;;;;;;;10428702;28;20027;-72
2022/05/01 06:56:30;;;;;;;11.20;6.67;;;;;;;;;;10404901;28;20030;-72
2022/05/01 07:01:30;;;;;;;11.13;6.30;;;;;;;;;;10404377;28;20029;-76
2022/05/01 07:06:31;;;;;;;7.30;5.80;;;;;;;;;;10387498;28;20022;-76
2022/05/01 07:11:31;;;;;;;8.00;6.28;;;;;;;;;;10421017;28;20479;-71
2022/05/01 07:16:31;;;;;;;10.93;6.63;;;;;;;;;;10439519;28;20026;-72
2022/05/01 07:21:32;;;;;;;9.82;7.10;;;;;;;;;;10403750;28;20028;-73
2022/05/01 07:26:33;;;;;;;8.87;6.37;;;;;;;;;;10374581;28;20017;-77
2022/05/01 07:31:33;;;;;;;12.23;6.20;;;;;;;;;;10428099;28;20073;-71
2022/05/01 07:36:34;;;;;;;8.27;5.93;;;;;;;;;;10375266;28;20095;-72
2022/05/01 07:41:35;;;;;;;8.73;5.40;;;;;;;;;;10363708;28;20406;-73
2022/05/01 07:46:36;;;;;;;10.07;5.90;;;;;;;;;;10378774;28;20497;-73
2022/05/01 07:51:36;;;;;;;10.00;5.50;;;;;;;;;;10379051;28;20025;-70
2022/05/01 07:56:38;;;;;;;7.55;4.70;;;;;;;;;;10378509;28;20021;-72
2022/05/01 08:01:38;;;;;;;8.85;5.32;;;;;;;;;;10362568;28;20501;-77
2022/05/01 08:06:39;;;;;;;6.60;4.85;;;;;;;;;;10361091;28;20041;-79
2022/05/01 08:11:39;;;;;;;5.88;4.43;;;;;;;;;;10329252;28;20462;-72
2022/05/01 08:16:40;;;;;;;5.67;4.57;;;;;;;;;;10320828;28;20027;-72
2022/05/01 08:21:40;;;;;;;5.38;3.90;;;;;;;;;;10337507;28;20026;-72
2022/05/01 08:26:42;;;;;;;4.68;3.40;;;;;;;;;;10321478;28;20092;-73
2022/05/01 08:31:43;;;;;;;4.35;3.70;;;;;;;;;;10327415;28;20026;-72
2022/05/01 08:36:43;;;;;;;4.53;3.50;;;;;;;;;;10324908;28;20058;-72
2022/05/01 08:41:43;;;;;;;3.42;2.45;;;;;;;;;;10354365;28;20029;-77
2022/05/01 08:46:55;;;;;;;4.53;2.13;;;;;;;;;;10361262;28;20029;-72
2022/05/01 08:51:56;;;;;;;4.00;2.00;;;;;;;;;;10356882;28;20486;-70
2022/05/01 08:56:57;;;;;;;3.03;1.60;;;;;;;;;;10320130;28;20065;-71
2022/05/01 09:01:57;;;;;;;4.53;2.20;;;;;;;;;;10336189;28;20195;-71
2022/05/01 09:07:00;;;;;;;3.45;2.15;;;;;;;;;;10335742;28;20026;-71
2022/05/01 09:17:24;;;;;;;2.55;2.15;;;;;;;;;;10356485;28;20030;-73
2022/05/01 09:22:24;;;;;;;2.58;2.08;;;;;;;;;;10368478;28;20072;-75
2022/05/01 09:27:34;;;;;;;3.75;1.60;;;;;;;;;;10354824;28;20038;-76
2022/05/01 09:32:37;;;;;;;1.50;1.40;;;;;;;;;;10342646;28;20019;-71
2022/05/01 09:37:37;;;;;;;2.53;1.33;;;;;;;;;;10343006;28;20058;-76
2022/05/01 09:42:37;;;;;;;2.67;1.60;;;;;;;;;;10342035;28;20026;-73
2022/05/01 09:47:42;;;;;;;1.57;1.30;;;;;;;;;;10325712;28;20088;-76
2022/05/01 09:52:55;;;;;;;2.30;1.30;;;;;;;;;;10325777;28;20029;-72
2022/05/01 09:58:14;;;;;;;3.90;1.38;;;;;;;;;;10325926;28;20152;-72
2022/05/01 10:03:21;;;;;;;3.67;1.48;;;;;;;;;;10325546;28;20093;-71
2022/05/01 10:08:21;;;;;;;;;;;;;;;;;;10379518;28;20026;-75
2022/05/01 10:13:24;;;;;;;2.60;1.20;;;;;;;;;;10346967;28;20571;-70
2022/05/01 10:18:25;;;;;;;2.33;1.30;;;;;;;;;;10326302;28;20023;-72
2022/05/01 10:23:25;;;;;;;1.20;1.10;;;;;;;;;;10326255;28;20482;-72
2022/05/01 10:28:37;;;;;;;1.23;1.10;;;;;;;;;;10324136;28;20034;-78
2022/05/01 10:33:53;;;;;;;1.85;1.10;;;;;;;;;;10347827;28;20394;-71
2022/05/01 10:39:06;;;;;;;1.90;1.00;;;;;;;;;;10404737;28;20171;-72
2022/05/01 10:44:06;;;;;;;1.45;0.93;;;;;;;;;;10421726;28;20048;-71
2022/05/01 10:49:27;;;;;;;1.70;1.40;;;;;;;;;;10429308;28;20048;-75
2022/05/01 10:54:32;;;;;;;5.80;1.40;;;;;;;;;;10446915;28;20029;-78
2022/05/01 10:59:34;;;;;;;2.15;1.27;;;;;;;;;;10413025;28;20033;-73
2022/05/01 11:04:35;;;;;;;3.13;1.63;;;;;;;;;;10387767;28;20025;-72
2022/05/01 11:09:36;;;;;;;1.50;1.40;;;;;;;;;;10387328;28;20021;-79
2022/05/01 11:14:40;;;;;;;5.57;1.60;;;;;;;;;;10387190;28;20026;-74
2022/05/01 11:19:50;;;;;;;3.03;1.55;;;;;;;;;;10403542;28;20036;-77
2022/05/01 11:24:50;;;;;;;2.00;1.60;;;;;;;;;;10387277;28;20409;-76
2022/05/01 11:30:22;;;;;;;1.95;1.70;;;;;;;;;;10404697;28;20032;-71
2022/05/01 11:35:42;;;;;;;2.88;2.20;;;;;;;;;;10386669;28;20044;-73
2022/05/01 11:40:52;;;;;;;6.45;2.42;;;;;;;;;;10391443;28;20017;-75
2022/05/01 11:45:52;;;;;;;3.58;1.92;;;;;;;;;;10444698;28;20048;-76
2022/05/01 11:50:53;;;;;;;6.65;2.67;;;;;;;;;;10445103;28;20116;-74
2022/05/01 12:06:42;;;;;;;7.55;2.85;;;;;;;;;;10444504;28;20017;-71
2022/05/01 12:11:45;;;;;;;3.35;2.00;;;;;;;;;;10412821;28;20083;-71
2022/05/01 12:16:46;;;;;;;2.85;2.00;;;;;;;;;;10380152;28;20025;-77
2022/05/01 12:21:47;;;;;;;2.25;2.05;;;;;;;;;;10377323;28;20021;-76
2022/05/01 12:26:52;;;;;;;4.70;3.33;;;;;;;;;;10382385;28;20079;-73
2022/05/01 12:32:06;;;;;;;6.28;2.05;;;;;;;;;;10416640;28;20488;-74
2022/05/01 12:37:19;;;;;;;3.25;2.00;;;;;;;;;;10433004;28;20060;-77
2022/05/01 12:47:40;;;;;;;3.83;2.13;;;;;;;;;;10408057;28;20104;-72
2022/05/01 12:52:41;;;;;;;4.10;2.40;;;;;;;;;;10420625;28;20031;-74
2022/05/01 12:57:52;;;;;;;5.55;3.05;;;;;;;;;;10418737;28;20555;-75
2022/05/01 13:02:56;;;;;;;3.28;2.50;;;;;;;;;;10425305;28;20033;-72
2022/05/01 13:07:57;;;;;;;2.60;1.80;;;;;;;;;;10425476;28;20034;-72
2022/05/01 13:12:58;;;;;;;2.00;1.80;;;;;;;;;;10419158;28;20152;-77
2022/05/01 13:18:00;;;;;;;5.38;2.30;;;;;;;;;;10422266;28;20533;-77
2022/05/01 13:23:00;;;;;;;5.40;2.70;;;;;;;;;;10431614;28;20503;-71
2022/05/01 13:28:00;;;;;;;2.92;2.63;;;;;;;;;;10448687;28;20029;-74
2022/05/01 13:33:01;;;;;;;4.17;1.93;;;;;;;;;;10449478;28;20028;-75
2022/05/01 13:38:02;;;;;;;2.53;1.90;;;;;;;;;;10416444;28;20057;-73
2022/05/01 13:48:22;;;;;;;4.47;1.95;;;;;;;;;;10407064;28;20057;-74
2022/05/01 13:53:24;;;;;;;2.80;2.13;;;;;;;;;;10389573;28;20100;-73
2022/05/01 13:58:24;;;;;;;2.58;2.38;;;;;;;;;;10428609;28;20500;-73
2022/05/01 14:03:24;;;;;;;5.20;2.13;;;;;;;;;;10445699;28;20032;-74
2022/05/01 14:08:24;;;;;;;4.20;2.38;;;;;;;;;;10406539;28;20029;-73
2022/05/01 14:13:25;;;;;;;2.33;2.00;;;;;;;;;;10405952;28;20380;-69
2022/05/01 14:18:25;;;;;;;3.58;2.35;;;;;;;;;;10417090;28;20087;-74
2022/05/01 14:23:27;;;;;;;6.20;2.20;;;;;;;;;;10446407;28;20712;-74
2022/05/01 14:28:27;;;;;;;2.53;2.13;;;;;;;;;;10429796;28;20028;-74
2022/05/01 14:33:57;;;;;;;5.07;2.60;;;;;;;;;;10403518;28;20034;-75
2022/05/01 14:39:04;;;;;;;5.03;2.42;;;;;;;;;;10378779;28;20033;-74
2022/05/01 14:44:05;;;;;;;7.00;2.40;;;;;;;;;;10388144;28;20060;-74
2022/05/01 14:49:05;;;;;;;2.10;1.90;;;;;;;;;;10405727;28;20104;-75
2022/05/01 14:54:06;;;;;;;2.40;2.20;;;;;;;;;;10387040;28;20017;-74
2022/05/01 15:10:04;;;;;;;3.72;3.05;;;;;;;;;;10444894;28;20024;-74
2022/05/01 15:15:04;;;;;;;3.40;2.40;;;;;;;;;;10442030;28;20021;-73
2022/05/01 15:20:20;;;;;;;2.92;2.38;;;;;;;;;;10428164;28;20026;-76
2022/05/01 15:25:26;;;;;;;4.22;2.55;;;;;;;;;;10427064;28;20100;-74
2022/05/01 15:30:32;;;;;;;3.85;2.67;;;;;;;;;;10425771;28;20475;-75
2022/05/01 15:35:33;;;;;;;7.43;4.55;;;;;;;;;;10426612;28;20511;-74
2022/05/01 15:40:34;;;;;;;3.13;2.13;;;;;;;;;;10442313;28;20087;-74
2022/05/01 15:45:53;;;;;;;8.45;3.38;;;;;;;;;;10410574;28;20086;-73
2022/05/01 15:56:14;;;;;;;2.92;1.90;;;;;;;;;;10415853;28;20030;-75
2022/05/01 16:01:15;;;;;;;2.25;1.85;;;;;;;;;;10436354;28;20104;-73
2022/05/01 16:06:17;;;;;;;2.47;2.10;;;;;;;;;;10424852;28;20025;-75
2022/05/01 16:11:17;;;;;;;6.80;2.30;;;;;;;;;;10442095;28;20021;-76
2022/05/01 16:16:18;;;;;;;5.70;2.55;;;;;;;;;;10441213;28;20404;-73
2022/05/01 16:21:26;;;;;;;6.18;2.88;;;;;;;;;;10443149;28;20497;-74
2022/05/01 16:26:28;;;;;;;4.03;2.10;;;;;;;;;;10427155;28;20128;-72
2022/05/01 16:31:32;;;;;;;3.42;1.95;;;;;;;;;;10416172;28;20586;-75
2022/05/01 16:36:36;;;;;;;2.15;1.70;;;;;;;;;;10425807;28;20423;-75
2022/05/01 16:41:37;;;;;;;1.95;1.63;;;;;;;;;;10430512;28;20037;-76
2022/05/01 16:46:37;;;;;;;5.40;2.38;;;;;;;;;;10424934;28;20020;-75
2022/05/01 16:51:39;;;;;;;2.92;2.00;;;;;;;;;;10433845;28;20028;-75
2022/05/01 16:56:39;;;;;;;3.70;2.20;;;;;;;;;;10416063;28;20792;-81
2022/05/01 17:01:42;;;;;;;4.70;2.95;;;;;;;;;;10417095;28;20037;-76
2022/05/01 17:06:47;;;;;;;2.60;2.17;;;;;;;;;;10426605;28;20050;-78
2022/05/01 17:11:47;;;;;;;3.83;2.17;;;;;;;;;;10426230;28;20108;-74
2022/05/01 17:17:03;;;;;;;2.75;2.22;;;;;;;;;;10426942;28;20473;-70
2022/05/01 17:22:03;;;;;;;4.53;2.63;;;;;;;;;;10432840;28;20108;-74
2022/05/01 17:27:05;;;;;;;7.55;2.63;;;;;;;;;;10434454;28;20039;-75
2022/05/01 17:32:07;;;;;;;6.35;2.65;;;;;;;;;;10443168;28;20123;-75
2022/05/01 17:37:13;;;;;;;5.63;2.55;;;;;;;;;;10411821;28;20052;-75
2022/05/01 17:42:13;;;;;;;6.57;3.17;;;;;;;;;;10426664;28;20033;-75
2022/05/01 17:47:14;;;;;;;5.45;3.33;;;;;;;;;;10427343;28;20089;-73
2022/05/01 17:52:16;;;;;;;5.53;2.83;;;;;;;;;;10422490;28;20025;-75
2022/05/01 17:57:16;;;;;;;11.02;2.83;;;;;;;;;;10412604;28;20028;-74
2022/05/01 18:02:29;;;;;;;7.67;3.00;;;;;;;;;;10429147;28;20029;-76
2022/05/01 18:13:16;;;;;;;4.13;3.03;;;;;;;;;;10438057;28;20021;-75
2022/05/01 18:18:23;;;;;;;3.28;2.72;;;;;;;;;;10424430;28;20309;-71
2022/05/01 18:23:50;;;;;;;3.20;2.90;;;;;;;;;;10431703;28;20110;-75
2022/05/01 18:34:14;;;;;;;5.97;3.28;;;;;;;;;;10428402;28;20067;-74
2022/05/01 18:39:16;;;;;;;3.60;2.72;;;;;;;;;;10418885;28;20099;-71
2022/05/01 18:44:19;;;;;;;3.85;2.47;;;;;;;;;;10418725;28;20112;-75
2022/05/01 18:49:21;;;;;;;4.22;2.42;;;;;;;;;;10429582;28;20035;-72
2022/05/01 18:54:22;;;;;;;5.18;2.42;;;;;;;;;;10428711;28;20108;-70
2022/05/01 18:59:24;;;;;;;7.05;2.67;;;;;;;;;;10428958;28;20571;-74
2022/05/01 19:04:25;;;;;;;4.57;2.53;;;;;;;;;;10431474;28;20031;-75
2022/05/01 19:09:34;;;;;;;5.80;2.10;;;;;;;;;;10420433;28;20052;-71
2022/05/01 19:14:41;;;;;;;7.68;2.60;;;;;;;;;;10421906;28;20036;-75
2022/05/01 19:19:50;;;;;;;2.85;2.17;;;;;;;;;;10421696;28;20034;-73
2022/05/01 19:30:42;;;;;;;3.15;2.03;;;;;;;;;;10422868;28;20053;-74
2022/05/01 19:35:57;;;;;;;3.28;2.38;;;;;;;;;;10419200;28;20037;-74
2022/05/01 19:41:14;;;;;;;2.75;2.03;;;;;;;;;;10401576;28;20071;-75
2022/05/01 19:46:33;;;;;;;2.92;2.00;;;;;;;;;;10428970;28;20033;-75
2022/05/01 19:56:57;;;;;;;6.00;2.53;;;;;;;;;;10426015;28;20029;-70
2022/05/01 20:01:58;;;;;;;3.05;2.20;;;;;;;;;;10412933;28;20067;-74
2022/05/01 20:06:59;;;;;;;4.10;2.20;;;;;;;;;;10405489;28;20033;-75
2022/05/01 20:11:59;;;;;;;3.25;2.50;;;;;;;;;;10423081;28;20036;-71
2022/05/01 20:17:01;;;;;;;4.07;2.33;;;;;;;;;;10408498;28;20027;-72
2022/05/01 20:22:16;;;;;;;4.57;2.65;;;;;;;;;;10439749;28;20100;-74
2022/05/01 20:27:19;;;;;;;2.67;2.47;;;;;;;;;;10424809;28;20032;-75
2022/05/01 20:32:38;;;;;;;5.47;3.30;;;;;;;;;;10406373;28;20077;-74
2022/05/01 20:37:39;;;;;;;4.13;3.10;;;;;;;;;;10385236;28;20049;-74
2022/05/01 20:42:42;;;;;;;3.83;3.10;;;;;;;;;;10413097;28;20516;-76
2022/05/01 20:48:02;;;;;;;4.13;3.22;;;;;;;;;;10442867;28;20029;-70
2022/05/01 20:53:07;;;;;;;5.00;3.85;;;;;;;;;;10443765;28;20025;-70
2022/05/01 20:58:08;;;;;;;7.45;3.88;;;;;;;;;;10408945;28;20021;-73
2022/05/01 21:03:09;;;;;;;4.88;3.72;;;;;;;;;;10425578;28;20032;-75
2022/05/01 21:08:10;;;;;;;6.30;3.42;;;;;;;;;;10425729;28;20027;-73
2022/05/01 21:13:11;;;;;;;10.98;3.92;;;;;;;;;;10427100;28;20021;-70
2022/05/01 21:18:12;;;;;;;4.78;3.70;;;;;;;;;;10433590;28;20060;-73
2022/05/01 21:23:13;;;;;;;5.88;4.07;;;;;;;;;;10443824;28;20115;-70
2022/05/01 21:33:33;;;;;;;6.38;3.83;;;;;;;;;;10450048;28;20517;-74
2022/05/01 21:38:34;;;;;;;9.93;4.60;;;;;;;;;;10431124;28;20049;-70
2022/05/01 21:43:38;;;;;;;8.15;3.92;;;;;;;;;;10432015;28;20032;-73
2022/05/01 21:48:38;;;;;;;8.20;3.47;;;;;;;;;;10433830;28;20035;-74
2022/05/01 21:53:38;;;;;;;6.88;4.00;;;;;;;;;;10449052;28;20029;-75
2022/05/01 21:58:39;;;;;;;6.25;4.88;;;;;;;;;;10449028;28;20032;-72
2022/05/01 22:03:41;;;;;;;7.00;4.75;;;;;;;;;;10424378;28;20500;-75
2022/05/01 22:08:41;;;;;;;6.50;4.75;;;;;;;;;;10446373;28;20089;-69
2022/05/01 22:13:41;;;;;;;6.45;4.47;;;;;;;;;;10447015;28;20013;-70
2022/05/01 22:18:42;;;;;;;5.65;4.25;;;;;;;;;;10447225;28;20029;-75
2022/05/01 22:23:43;;;;;;;8.93;5.43;;;;;;;;;;10429807;28;20033;-75
2022/05/01 22:28:43;;;;;;;8.30;5.00;;;;;;;;;;10447706;28;20040;-75
2022/05/01 22:33:43;;;;;;;7.68;5.20;;;;;;;;;;10430033;28;20493;-68
2022/05/01 22:38:44;;;;;;;5.93;4.35;;;;;;;;;;10429666;28;20058;-69
2022/05/01 22:43:44;;;;;;;9.47;4.30;;;;;;;;;;10443154;28;20033;-73
2022/05/01 22:48:44;;;;;;;6.17;3.80;;;;;;;;;;10419360;28;20026;-73
2022/05/01 22:53:45;;;;;;;5.45;3.75;;;;;;;;;;10423176;28;20108;-73
2022/05/01 22:58:45;;;;;;;7.07;3.90;;;;;;;;;;10412889;28;20339;-73
2022/05/01 23:03:45;;;;;;;5.70;4.03;;;;;;;;;;10425871;28;20033;-70
2022/05/01 23:08:46;;;;;;;6.38;4.00;;;;;;;;;;10446015;28;20031;-73
2022/05/01 23:13:47;;;;;;;6.72;4.72;;;;;;;;;;10445335;28;20028;-74
2022/05/01 23:18:47;;;;;;;6.55;4.78;;;;;;;;;;10444281;28;20024;-75
2022/05/01 23:23:47;;;;;;;5.20;4.17;;;;;;;;;;10445836;28;20075;-70
2022/05/01 23:28:48;;;;;;;8.18;5.45;;;;;;;;;;10445366;28;20025;-73
2022/05/01 23:33:48;;;;;;;7.53;5.22;;;;;;;;;;10443271;28;20504;-74
2022/05/01 23:38:48;;;;;;;8.07;5.53;;;;;;;;;;10442936;28;20032;-74
2022/05/01 23:43:49;;;;;;;8.38;6.55;;;;;;;;;;10443481;28;20062;-74
2022/05/01 23:48:49;;;;;;;11.68;7.70;;;;;;;;;;10411144;28;20536;-76
2022/05/01 23:53:49;;;;;;;9.98;7.72;;;;;;;;;;10443116;28;20032;-75
2022/05/01 23:58:49;;;;;;;15.00;7.45;;;;;;;;;;10426657;28;20029;-73
